createdAt,value
2016-08-07T00:00:01.936Z,15.2
2016-08-07T00:00:15.318Z,15.2
2016-08-07T00:00:29.434Z,15.3
2016-08-07T00:00:44.281Z,15.2
2016-08-07T00:00:59.150Z,15.1
2016-08-07T00:01:11.769Z,15.2
2016-08-07T00:01:25.119Z,15.2
2016-08-07T00:01:39.245Z,15.3
2016-08-07T00:01:50.369Z,15.1
2016-08-07T00:02:04.501Z,15.3
2016-08-07T00:02:18.601Z,15.2
2016-08-07T00:02:31.977Z,15.2
2016-08-07T00:02:47.583Z,15.2
2016-08-07T00:03:01.689Z,15.2
2016-08-07T00:03:15.806Z,15.2
2016-08-07T00:03:29.174Z,15.2
2016-08-07T00:03:44.028Z,15.2
2016-08-07T00:03:57.378Z,15.1
2016-08-07T00:04:10.735Z,15.2
2016-08-07T00:04:25.597Z,15.1
2016-08-07T00:04:38.949Z,15.2
2016-08-07T00:04:50.880Z,15.2
2016-08-07T00:05:05.012Z,15.1
2016-08-07T00:05:19.116Z,15.1
2016-08-07T00:05:31.716Z,15.1
2016-08-07T00:05:43.579Z,15.1
2016-08-07T00:05:56.269Z,15.1
2016-08-07T00:06:10.384Z,15.2
2016-08-07T00:06:25.254Z,15.1
2016-08-07T00:06:37.131Z,15.1
2016-08-07T00:06:51.251Z,15.1
2016-08-07T00:07:03.113Z,15.1
2016-08-07T00:07:16.453Z,15.1
2016-08-07T00:07:29.071Z,15
2016-08-07T00:07:52.470Z,15.1
2016-08-07T00:08:05.067Z,15.1
2016-08-07T00:08:18.425Z,15
2016-08-07T00:08:32.523Z,15.2
2016-08-07T00:08:47.379Z,15
2016-08-07T00:09:00.728Z,15.1
2016-08-07T00:09:14.095Z,15.1
2016-08-07T00:09:27.436Z,15
2016-08-07T00:09:41.539Z,15
2016-08-07T00:09:55.631Z,15
2016-08-07T00:10:06.747Z,15
2016-08-07T00:10:18.610Z,15
2016-08-07T00:10:32.720Z,15
2016-08-07T00:10:45.330Z,15
2016-08-07T00:10:56.449Z,15
2016-08-07T00:11:10.562Z,14.9
2016-08-07T00:11:26.151Z,15
2016-08-07T00:11:36.127Z,15
2016-08-07T00:11:47.997Z,15
2016-08-07T00:12:01.371Z,15.1
2016-08-07T00:12:13.306Z,15.1
2016-08-07T00:12:24.424Z,15
2016-08-07T00:12:36.293Z,15
2016-08-07T00:12:49.654Z,15.1
2016-08-07T00:13:03.770Z,15
2016-08-07T00:13:17.158Z,15
2016-08-07T00:13:28.999Z,15
2016-08-07T00:13:42.339Z,15
2016-08-07T00:13:57.203Z,15
2016-08-07T00:14:08.320Z,15
2016-08-07T00:14:22.435Z,15
2016-08-07T00:14:37.283Z,15.1
2016-08-07T00:14:49.883Z,15
2016-08-07T00:15:02.473Z,15
2016-08-07T00:15:17.319Z,14.9
2016-08-07T00:15:31.435Z,15
2016-08-07T00:15:43.276Z,15
2016-08-07T00:15:57.377Z,15
2016-08-07T00:16:12.230Z,15.1
2016-08-07T00:16:24.823Z,15.1
2016-08-07T00:16:39.682Z,15
2016-08-07T00:16:53.041Z,15
2016-08-07T00:17:04.886Z,14.9
2016-08-07T00:17:19.009Z,15
2016-08-07T00:17:31.621Z,15
2016-08-07T00:17:47.226Z,15.1
2016-08-07T00:17:59.079Z,15.1
2016-08-07T00:18:13.174Z,15
2016-08-07T00:18:27.266Z,15
2016-08-07T00:18:42.115Z,15
2016-08-07T00:18:52.468Z,15.1
2016-08-07T00:19:05.847Z,15
2016-08-07T00:19:19.936Z,15
2016-08-07T00:19:34.781Z,15
2016-08-07T00:19:57.770Z,15
2016-08-07T00:20:11.868Z,14.9
2016-08-07T00:20:25.212Z,15
2016-08-07T00:20:38.566Z,15
2016-08-07T00:21:02.151Z,15
2016-08-07T00:21:14.006Z,15
2016-08-07T00:21:28.117Z,15
2016-08-07T00:21:41.493Z,15
2016-08-07T00:21:51.880Z,15.1
2016-08-07T00:22:06.004Z,15
2016-08-07T00:22:19.384Z,15
2016-08-07T00:22:34.266Z,15
2016-08-07T00:22:47.624Z,15.1
2016-08-07T00:23:01.004Z,15
2016-08-07T00:23:14.582Z,14.9
2016-08-07T00:23:27.183Z,15
2016-08-07T00:23:40.555Z,15
2016-08-07T00:23:53.939Z,15
2016-08-07T00:24:06.543Z,15.1
2016-08-07T00:24:21.413Z,15
2016-08-07T00:24:35.535Z,15
2016-08-07T00:24:49.637Z,15
2016-08-07T00:25:02.239Z,15
2016-08-07T00:25:16.384Z,15
2016-08-07T00:25:31.243Z,15
2016-08-07T00:25:43.861Z,15
2016-08-07T00:25:57.220Z,15
2016-08-07T00:26:09.827Z,14.9
2016-08-07T00:26:23.202Z,15
2016-08-07T00:26:36.572Z,14.9
2016-08-07T00:26:51.434Z,15
2016-08-07T00:27:05.545Z,14.9
2016-08-07T00:27:20.406Z,14.8
2016-08-07T00:27:31.523Z,14.8
2016-08-07T00:27:44.886Z,14.9
2016-08-07T00:27:56.037Z,14.8
2016-08-07T00:28:08.638Z,14.8
2016-08-07T00:28:22.730Z,14.8
2016-08-07T00:28:35.336Z,14.9
2016-08-07T00:28:48.691Z,14.9
2016-08-07T00:29:02.789Z,14.9
2016-08-07T00:29:12.764Z,14.9
2016-08-07T00:29:26.116Z,14.9
2016-08-07T00:29:41.725Z,14.7
2016-08-07T00:29:55.922Z,14.9
2016-08-07T00:30:10.027Z,14.8
2016-08-07T00:30:24.138Z,14.8
2016-08-07T00:30:36.008Z,14.8
2016-08-07T00:30:49.375Z,14.7
2016-08-07T00:31:01.249Z,14.7
2016-08-07T00:31:16.104Z,14.7
2016-08-07T00:31:30.225Z,14.7
2016-08-07T00:31:43.630Z,14.7
2016-08-07T00:31:55.580Z,14.6
2016-08-07T00:32:10.440Z,14.6
2016-08-07T00:32:24.533Z,14.7
2016-08-07T00:32:38.634Z,14.7
2016-08-07T00:32:51.244Z,14.8
2016-08-07T00:33:03.889Z,14.7
2016-08-07T00:33:18.761Z,14.7
2016-08-07T00:33:32.871Z,14.8
2016-08-07T00:33:46.227Z,14.7
2016-08-07T00:34:00.342Z,14.7
2016-08-07T00:34:13.694Z,14.8
2016-08-07T00:34:29.315Z,14.8
2016-08-07T00:34:41.209Z,14.8
2016-08-07T00:34:54.571Z,14.8
2016-08-07T00:35:08.708Z,14.8
2016-08-07T00:35:23.589Z,14.8
2016-08-07T00:35:35.462Z,14.8
2016-08-07T00:35:50.334Z,14.8
2016-08-07T00:36:02.220Z,14.7
2016-08-07T00:36:15.596Z,14.9
2016-08-07T00:36:29.705Z,14.7
2016-08-07T00:36:44.567Z,14.8
2016-08-07T00:36:58.689Z,14.8
2016-08-07T00:37:12.045Z,14.8
2016-08-07T00:37:27.656Z,14.8
2016-08-07T00:37:41.766Z,14.8
2016-08-07T00:37:55.894Z,14.7
2016-08-07T00:38:17.331Z,14.7
2016-08-07T00:38:29.960Z,14.7
2016-08-07T00:38:44.819Z,14.8
2016-08-07T00:38:59.679Z,14.6
2016-08-07T00:39:14.564Z,14.6
2016-08-07T00:39:27.144Z,14.6
2016-08-07T00:39:41.246Z,14.6
2016-08-07T00:39:53.116Z,14.7
2016-08-07T00:40:07.233Z,14.7
2016-08-07T00:40:22.084Z,14.6
2016-08-07T00:40:36.953Z,14.7
2016-08-07T00:40:49.572Z,14.6
2016-08-07T00:41:03.687Z,14.6
2016-08-07T00:41:17.040Z,14.6
2016-08-07T00:41:28.884Z,14.7
2016-08-07T00:41:42.995Z,14.6
2016-08-07T00:41:56.361Z,14.6
2016-08-07T00:42:08.960Z,14.7
2016-08-07T00:42:22.474Z,14.6
2016-08-07T00:42:34.370Z,14.6
2016-08-07T00:42:51.239Z,14.6
2016-08-07T00:43:03.854Z,14.6
2016-08-07T00:43:19.717Z,14.6
2016-08-07T00:43:33.186Z,14.7
2016-08-07T00:43:46.530Z,14.6
2016-08-07T00:43:59.884Z,14.6
2016-08-07T00:44:14.793Z,14.5
2016-08-07T00:44:29.648Z,14.6
2016-08-07T00:44:45.275Z,14.5
2016-08-07T00:44:57.899Z,14.6
2016-08-07T00:45:15.186Z,14.5
2016-08-07T00:45:28.953Z,14.6
2016-08-07T00:45:43.086Z,14.6
2016-08-07T00:45:57.951Z,14.6
2016-08-07T00:46:08.479Z,14.7
2016-08-07T00:46:21.873Z,14.6
2016-08-07T00:46:36.730Z,14.7
2016-08-07T00:46:52.354Z,14.6
2016-08-07T00:47:07.980Z,14.6
2016-08-07T00:47:22.838Z,14.6
2016-08-07T00:47:36.220Z,14.7
2016-08-07T00:47:46.858Z,14.6
2016-08-07T00:48:01.722Z,14.7
2016-08-07T00:48:13.584Z,14.6
2016-08-07T00:48:30.325Z,14.7
2016-08-07T00:48:43.681Z,14.7
2016-08-07T00:48:57.083Z,14.5
2016-08-07T00:49:11.326Z,14.7
2016-08-07T00:49:26.933Z,14.7
2016-08-07T00:49:42.587Z,14.7
2016-08-07T00:49:57.420Z,14.7
2016-08-07T00:50:18.085Z,14.6
2016-08-07T00:50:32.217Z,14.6
2016-08-07T00:50:47.808Z,14.6
2016-08-07T00:51:08.575Z,14.6
2016-08-07T00:51:23.424Z,14.6
2016-08-07T00:51:37.538Z,14.7
2016-08-07T00:51:51.640Z,14.6
2016-08-07T00:52:05.004Z,14.6
2016-08-07T00:52:19.855Z,14.6
2016-08-07T00:52:33.262Z,14.7
2016-08-07T00:52:46.615Z,14.6
2016-08-07T00:53:00.803Z,14.7
2016-08-07T00:53:14.202Z,14.6
2016-08-07T00:53:29.053Z,14.6
2016-08-07T00:53:41.688Z,14.7
2016-08-07T00:53:55.865Z,14.6
2016-08-07T00:54:09.963Z,14.7
2016-08-07T00:54:23.306Z,14.6
2016-08-07T00:54:36.660Z,14.6
2016-08-07T00:54:49.253Z,14.6
2016-08-07T00:55:03.347Z,14.6
2016-08-07T00:55:14.447Z,14.7
2016-08-07T00:55:26.365Z,14.6
2016-08-07T00:55:40.472Z,14.6
2016-08-07T00:55:52.327Z,14.6
2016-08-07T00:56:05.705Z,14.6
2016-08-07T00:56:20.569Z,14.6
2016-08-07T00:56:32.576Z,14.6
2016-08-07T00:56:45.989Z,14.7
2016-08-07T00:57:00.858Z,14.6
2016-08-07T00:57:12.697Z,14.6
2016-08-07T00:57:27.556Z,14.7
2016-08-07T00:57:42.523Z,14.6
2016-08-07T00:57:56.646Z,14.6
2016-08-07T00:58:09.338Z,14.5
2016-08-07T00:58:24.209Z,14.5
2016-08-07T00:58:39.086Z,14.5
2016-08-07T00:58:54.682Z,14.6
2016-08-07T00:59:07.281Z,14.5
2016-08-07T00:59:20.808Z,14.5
2016-08-07T00:59:34.891Z,14.5
2016-08-07T00:59:49.007Z,14.6
2016-08-07T01:00:01.606Z,14.5
2016-08-07T01:00:14.476Z,14.5
2016-08-07T01:00:28.445Z,14.5
2016-08-07T01:00:41.816Z,14.4
2016-08-07T01:00:54.524Z,14.6
2016-08-07T01:01:09.407Z,14.5
2016-08-07T01:01:21.467Z,14.6
2016-08-07T01:01:36.323Z,14.5
2016-08-07T01:01:48.268Z,14.6
2016-08-07T01:02:00.964Z,14.6
2016-08-07T01:02:13.837Z,14.5
2016-08-07T01:02:27.939Z,14.5
2016-08-07T01:02:42.070Z,14.5
2016-08-07T01:02:56.964Z,14.6
2016-08-07T01:03:09.593Z,14.6
2016-08-07T01:03:24.436Z,14.5
2016-08-07T01:03:37.836Z,14.6
2016-08-07T01:03:52.715Z,14.6
2016-08-07T01:04:06.853Z,14.6
2016-08-07T01:04:20.963Z,14.5
2016-08-07T01:04:35.816Z,14.6
2016-08-07T01:04:51.430Z,14.6
2016-08-07T01:05:06.297Z,14.6
2016-08-07T01:05:25.576Z,14.5
2016-08-07T01:05:40.022Z,14.5
2016-08-07T01:05:52.637Z,14.5
2016-08-07T01:06:16.008Z,14.5
2016-08-07T01:06:28.620Z,14.5
2016-08-07T01:06:40.461Z,14.5
2016-08-07T01:06:55.334Z,14.4
2016-08-07T01:07:07.190Z,14.6
2016-08-07T01:07:22.287Z,14.5
2016-08-07T01:07:36.383Z,14.5
2016-08-07T01:07:50.515Z,14.4
2016-08-07T01:08:03.900Z,14.5
2016-08-07T01:08:17.283Z,14.5
2016-08-07T01:08:32.129Z,14.4
2016-08-07T01:08:45.491Z,14.5
2016-08-07T01:09:00.341Z,14.5
2016-08-07T01:09:17.377Z,14.5
2016-08-07T01:09:29.221Z,14.5
2016-08-07T01:09:42.582Z,14.5
2016-08-07T01:09:57.448Z,14.5
2016-08-07T01:10:11.404Z,14.5
2016-08-07T01:10:26.003Z,14.5
2016-08-07T01:10:38.605Z,14.5
2016-08-07T01:10:52.728Z,14.4
2016-08-07T01:11:08.166Z,14.5
2016-08-07T01:11:19.264Z,14.4
2016-08-07T01:11:33.402Z,14.5
2016-08-07T01:11:48.275Z,14.5
2016-08-07T01:12:02.376Z,14.5
2016-08-07T01:12:16.479Z,14.3
2016-08-07T01:12:26.839Z,14.5
2016-08-07T01:12:40.271Z,14.5
2016-08-07T01:12:53.616Z,14.4
2016-08-07T01:13:09.132Z,14.2
2016-08-07T01:13:23.851Z,14.3
2016-08-07T01:13:38.594Z,14.3
2016-08-07T01:13:52.689Z,14.3
2016-08-07T01:14:05.284Z,14.3
2016-08-07T01:14:20.982Z,14.5
2016-08-07T01:14:32.848Z,14.5
2016-08-07T01:14:45.439Z,14.4
2016-08-07T01:14:59.535Z,14.3
2016-08-07T01:15:16.283Z,14.4
2016-08-07T01:15:30.997Z,14.3
2016-08-07T01:15:40.975Z,14.4
2016-08-07T01:15:55.089Z,14.4
2016-08-07T01:16:06.215Z,14.5
2016-08-07T01:16:19.564Z,14.5
2016-08-07T01:16:32.912Z,14.5
2016-08-07T01:16:47.771Z,14.5
2016-08-07T01:16:59.621Z,14.5
2016-08-07T01:17:12.219Z,14.5
2016-08-07T01:17:25.574Z,14.5
2016-08-07T01:17:38.928Z,14.5
2016-08-07T01:17:53.803Z,14.4
2016-08-07T01:18:05.639Z,14.5
2016-08-07T01:18:19.763Z,14.4
2016-08-07T01:18:33.885Z,14.4
2016-08-07T01:18:44.978Z,14.4
2016-08-07T01:18:57.518Z,14.5
2016-08-07T01:19:09.372Z,14.4
2016-08-07T01:19:19.721Z,14.5
2016-08-07T01:19:32.359Z,14.3
2016-08-07T01:19:47.983Z,14.4
2016-08-07T01:20:02.314Z,14.3
2016-08-07T01:20:14.945Z,14.4
2016-08-07T01:20:30.978Z,14.3
2016-08-07T01:20:46.576Z,14.4
2016-08-07T01:21:00.719Z,14.4
2016-08-07T01:21:15.022Z,14.4
2016-08-07T01:21:26.895Z,14.5
2016-08-07T01:21:40.259Z,14.4
2016-08-07T01:21:55.134Z,14.4
2016-08-07T01:22:08.643Z,14.4
2016-08-07T01:22:22.770Z,14.4
2016-08-07T01:22:36.915Z,14.3
2016-08-07T01:22:51.030Z,14.4
2016-08-07T01:23:04.411Z,14.4
2016-08-07T01:23:29.305Z,14.4
2016-08-07T01:23:44.928Z,14.4
2016-08-07T01:23:58.307Z,14.4
2016-08-07T01:24:10.973Z,14.4
2016-08-07T01:24:23.621Z,14.4
2016-08-07T01:24:36.222Z,14.4
2016-08-07T01:24:49.593Z,14.4
2016-08-07T01:25:04.540Z,14.4
2016-08-07T01:25:17.996Z,14.3
2016-08-07T01:25:32.133Z,14.4
2016-08-07T01:25:46.990Z,14.4
2016-08-07T01:25:59.623Z,14.4
2016-08-07T01:26:13.729Z,14.4
2016-08-07T01:26:28.622Z,14.4
2016-08-07T01:26:40.479Z,14.2
2016-08-07T01:26:56.108Z,14.4
2016-08-07T01:27:07.968Z,14.3
2016-08-07T01:27:25.835Z,14.3
2016-08-07T01:27:37.702Z,14.3
2016-08-07T01:27:51.850Z,14.4
2016-08-07T01:28:05.296Z,14.3
2016-08-07T01:28:17.886Z,14.3
2016-08-07T01:28:30.493Z,14.5
2016-08-07T01:28:43.878Z,14.4
2016-08-07T01:28:55.760Z,14.4
2016-08-07T01:29:09.878Z,14.4
2016-08-07T01:29:23.308Z,14.4
2016-08-07T01:29:35.249Z,14.5
2016-08-07T01:29:48.624Z,14.6
2016-08-07T01:29:59.727Z,14.5
2016-08-07T01:30:16.672Z,14.4
2016-08-07T01:30:29.436Z,14.5
2016-08-07T01:30:44.828Z,14.4
2016-08-07T01:30:58.938Z,14.4
2016-08-07T01:31:13.469Z,14.4
2016-08-07T01:31:27.742Z,14.4
2016-08-07T01:31:41.862Z,14.5
2016-08-07T01:31:56.753Z,14.4
2016-08-07T01:32:08.602Z,14.4
2016-08-07T01:32:23.464Z,14.4
2016-08-07T01:32:38.919Z,14.4
2016-08-07T01:32:52.862Z,14.4
2016-08-07T01:33:07.203Z,14.3
2016-08-07T01:33:23.677Z,14.4
2016-08-07T01:33:39.274Z,14.4
2016-08-07T01:33:51.889Z,14.4
2016-08-07T01:34:06.852Z,14.3
2016-08-07T01:34:20.979Z,14.4
2016-08-07T01:34:36.597Z,14.4
2016-08-07T01:34:49.576Z,14.4
2016-08-07T01:35:02.184Z,14.4
2016-08-07T01:35:14.077Z,14.4
2016-08-07T01:35:29.720Z,14.3
2016-08-07T01:35:43.831Z,14.4
2016-08-07T01:35:54.858Z,14.4
2016-08-07T01:36:09.074Z,14.4
2016-08-07T01:36:36.042Z,14.5
2016-08-07T01:36:50.894Z,14.4
2016-08-07T01:37:04.282Z,14.4
2016-08-07T01:37:17.642Z,14.4
2016-08-07T01:37:31.015Z,14.5
2016-08-07T01:37:43.618Z,14.5
2016-08-07T01:37:57.790Z,14.5
2016-08-07T01:38:13.680Z,14.5
2016-08-07T01:38:27.027Z,14.6
2016-08-07T01:38:40.514Z,14.5
2016-08-07T01:38:54.638Z,14.5
2016-08-07T01:39:08.562Z,14.5
2016-08-07T01:39:22.724Z,14.5
2016-08-07T01:39:35.364Z,14.5
2016-08-07T01:39:48.804Z,14.5
2016-08-07T01:40:03.711Z,14.5
2016-08-07T01:40:17.304Z,14.4
2016-08-07T01:40:31.861Z,14.4
2016-08-07T01:40:45.265Z,14.5
2016-08-07T01:40:59.355Z,14.4
2016-08-07T01:41:11.979Z,14.5
2016-08-07T01:41:26.833Z,14.4
2016-08-07T01:41:38.680Z,14.5
2016-08-07T01:41:52.832Z,14.4
2016-08-07T01:42:06.951Z,14.4
2016-08-07T01:42:19.568Z,14.4
2016-08-07T01:42:33.797Z,14.4
2016-08-07T01:42:46.417Z,14.3
2016-08-07T01:42:58.273Z,14.5
2016-08-07T01:43:12.587Z,14.4
2016-08-07T01:43:31.463Z,14.4
2016-08-07T01:43:42.591Z,14.4
2016-08-07T01:43:57.463Z,14.3
2016-08-07T01:44:11.575Z,14.4
2016-08-07T01:44:24.172Z,14.5
2016-08-07T01:44:36.031Z,14.4
2016-08-07T01:44:49.413Z,14.4
2016-08-07T01:45:05.063Z,14.5
2016-08-07T01:45:17.674Z,14.4
2016-08-07T01:45:32.311Z,14.3
2016-08-07T01:45:45.667Z,14.4
2016-08-07T01:45:57.504Z,14.4
2016-08-07T01:46:11.650Z,14.4
2016-08-07T01:46:25.764Z,14.4
2016-08-07T01:46:38.520Z,14.4
2016-08-07T01:46:53.349Z,14.4
2016-08-07T01:47:08.951Z,14.4
2016-08-07T01:47:23.067Z,14.4
2016-08-07T01:47:37.231Z,14.4
2016-08-07T01:47:52.099Z,14.5
2016-08-07T01:48:04.303Z,14.4
2016-08-07T01:48:17.656Z,14.4
2016-08-07T01:48:29.581Z,14.4
2016-08-07T01:48:44.065Z,14.4
2016-08-07T01:48:59.677Z,14.4
2016-08-07T01:49:13.049Z,14.4
2016-08-07T01:49:27.176Z,14.4
2016-08-07T01:49:40.577Z,14.4
2016-08-07T01:49:53.195Z,14.4
2016-08-07T01:50:07.723Z,14.5
2016-08-07T01:50:20.157Z,14.4
2016-08-07T01:50:33.658Z,14.4
2016-08-07T01:50:47.018Z,14.4
2016-08-07T01:51:00.559Z,14.4
2016-08-07T01:51:13.939Z,14.4
2016-08-07T01:51:37.554Z,14.3
2016-08-07T01:51:50.914Z,14.4
2016-08-07T01:52:03.595Z,14.4
2016-08-07T01:52:16.204Z,14.3
2016-08-07T01:52:30.324Z,14.4
2016-08-07T01:52:43.676Z,14.5
2016-08-07T01:52:57.790Z,14.5
2016-08-07T01:53:10.385Z,14.4
2016-08-07T01:53:24.488Z,14.4
2016-08-07T01:53:37.103Z,14.5
2016-08-07T01:53:51.236Z,14.4
2016-08-07T01:54:06.362Z,14.5
2016-08-07T01:54:19.732Z,14.5
2016-08-07T01:54:35.343Z,14.4
2016-08-07T01:54:49.440Z,14.4
2016-08-07T01:55:04.315Z,14.4
2016-08-07T01:55:18.782Z,14.4
2016-08-07T01:55:33.446Z,14.4
2016-08-07T01:55:47.546Z,14.4
2016-08-07T01:56:02.413Z,14.3
2016-08-07T01:56:19.223Z,14.5
2016-08-07T01:56:34.078Z,14.5
2016-08-07T01:56:47.432Z,14.4
2016-08-07T01:57:00.067Z,14.4
2016-08-07T01:57:11.161Z,14.4
2016-08-07T01:57:23.080Z,14.4
2016-08-07T01:57:39.291Z,14.5
2016-08-07T01:57:52.778Z,14.4
2016-08-07T01:58:06.934Z,14.4
2016-08-07T01:58:21.824Z,14.4
2016-08-07T01:58:33.686Z,14.4
2016-08-07T01:58:47.058Z,14.5
2016-08-07T01:58:58.917Z,14.4
2016-08-07T01:59:15.904Z,14.4
2016-08-07T01:59:30.024Z,14.4
2016-08-07T01:59:44.872Z,14.4
2016-08-07T01:59:59.036Z,14.3
2016-08-07T02:00:11.444Z,14.3
2016-08-07T02:00:27.774Z,14.2
2016-08-07T02:00:43.884Z,14.3
2016-08-07T02:00:56.501Z,14.4
2016-08-07T02:01:10.623Z,14.4
2016-08-07T02:01:23.232Z,14.3
2016-08-07T02:01:38.909Z,14.4
2016-08-07T02:01:50.770Z,14.4
2016-08-07T02:02:05.682Z,14.4
2016-08-07T02:02:20.495Z,14.4
2016-08-07T02:02:35.344Z,14.4
2016-08-07T02:02:47.939Z,14.5
2016-08-07T02:03:02.811Z,14.4
2016-08-07T02:03:15.576Z,14.4
2016-08-07T02:03:29.703Z,14.3
2016-08-07T02:03:45.319Z,14.3
2016-08-07T02:03:57.917Z,14.4
2016-08-07T02:04:15.396Z,14.3
2016-08-07T02:04:28.046Z,14.3
2016-08-07T02:04:43.675Z,14.3
2016-08-07T02:04:55.533Z,14.4
2016-08-07T02:05:09.656Z,14.4
2016-08-07T02:05:22.251Z,14.3
2016-08-07T02:05:38.015Z,14.2
2016-08-07T02:05:52.299Z,14.3
2016-08-07T02:06:06.397Z,14.3
2016-08-07T02:06:18.273Z,14.3
2016-08-07T02:06:38.661Z,14.3
2016-08-07T02:06:52.023Z,14.3
2016-08-07T02:07:05.463Z,14.4
2016-08-07T02:07:19.596Z,14.3
2016-08-07T02:07:33.774Z,14.4
2016-08-07T02:07:46.247Z,14.3
2016-08-07T02:08:01.854Z,14.3
2016-08-07T02:08:15.998Z,14.2
2016-08-07T02:08:30.130Z,14.2
2016-08-07T02:08:42.760Z,14.3
2016-08-07T02:08:57.224Z,14.2
2016-08-07T02:09:11.342Z,14.3
2016-08-07T02:09:23.996Z,14.3
2016-08-07T02:09:37.389Z,14.3
2016-08-07T02:09:51.543Z,14.3
2016-08-07T02:10:04.389Z,14.3
2016-08-07T02:10:17.328Z,14.4
2016-08-07T02:10:30.916Z,14.3
2016-08-07T02:10:45.169Z,14.3
2016-08-07T02:10:58.559Z,14.3
2016-08-07T02:11:12.664Z,14.4
2016-08-07T02:11:26.221Z,14.3
2016-08-07T02:11:40.319Z,14.3
2016-08-07T02:11:55.987Z,14.3
2016-08-07T02:12:10.111Z,14.4
2016-08-07T02:12:23.461Z,14.4
2016-08-07T02:12:40.770Z,14.4
2016-08-07T02:12:54.907Z,14.3
2016-08-07T02:13:10.231Z,14.5
2016-08-07T02:13:22.127Z,14.4
2016-08-07T02:13:36.280Z,14.4
2016-08-07T02:13:51.142Z,14.5
2016-08-07T02:14:05.256Z,14.5
2016-08-07T02:14:18.602Z,14.4
2016-08-07T02:14:32.733Z,14.4
2016-08-07T02:14:46.094Z,14.5
2016-08-07T02:15:00.217Z,14.4
2016-08-07T02:15:14.099Z,14.4
2016-08-07T02:15:27.858Z,14.4
2016-08-07T02:15:41.244Z,14.4
2016-08-07T02:15:57.798Z,14.4
2016-08-07T02:16:11.899Z,14.5
2016-08-07T02:16:26.024Z,14.4
2016-08-07T02:16:39.410Z,14.4
2016-08-07T02:16:53.642Z,14.4
2016-08-07T02:17:06.258Z,14.4
2016-08-07T02:17:19.065Z,14.4
2016-08-07T02:17:32.441Z,14.3
2016-08-07T02:17:47.425Z,14.3
2016-08-07T02:18:00.201Z,14.3
2016-08-07T02:18:15.812Z,14.4
2016-08-07T02:18:30.709Z,14.4
2016-08-07T02:18:44.823Z,14.4
2016-08-07T02:18:56.679Z,14.4
2016-08-07T02:19:10.784Z,14.4
2016-08-07T02:19:25.994Z,14.4
2016-08-07T02:19:40.088Z,14.4
2016-08-07T02:19:55.727Z,14.4
2016-08-07T02:20:09.329Z,14.4
2016-08-07T02:20:23.478Z,14.4
2016-08-07T02:20:37.583Z,14.3
2016-08-07T02:20:51.759Z,14.4
2016-08-07T02:21:05.108Z,14.4
2016-08-07T02:21:29.216Z,14.2
2016-08-07T02:21:44.087Z,14.2
2016-08-07T02:21:58.215Z,14.3
2016-08-07T02:22:10.085Z,14.2
2016-08-07T02:22:21.953Z,14.2
2016-08-07T02:22:34.581Z,14.3
2016-08-07T02:22:45.032Z,14.3
2016-08-07T02:22:58.386Z,14.3
2016-08-07T02:23:11.070Z,14.3
2016-08-07T02:23:25.945Z,14.2
2016-08-07T02:23:38.561Z,14.3
2016-08-07T02:23:51.531Z,14.2
2016-08-07T02:24:05.660Z,14.3
2016-08-07T02:24:20.551Z,14.3
2016-08-07T02:24:34.030Z,14.3
2016-08-07T02:24:48.157Z,14.3
2016-08-07T02:25:03.713Z,14.4
2016-08-07T02:25:16.340Z,14.3
2016-08-07T02:25:32.149Z,14.3
2016-08-07T02:25:45.494Z,14.3
2016-08-07T02:26:03.633Z,14.3
2016-08-07T02:26:15.474Z,14.4
2016-08-07T02:26:30.349Z,14.4
2016-08-07T02:26:46.021Z,14.3
2016-08-07T02:26:59.409Z,14.2
2016-08-07T02:27:12.030Z,14.3
2016-08-07T02:27:23.128Z,14.3
2016-08-07T02:27:33.476Z,14.2
2016-08-07T02:27:47.588Z,14.2
2016-08-07T02:28:00.248Z,14.3
2016-08-07T02:28:12.862Z,14.4
2016-08-07T02:28:25.474Z,14.4
2016-08-07T02:28:39.627Z,14.2
2016-08-07T02:28:54.929Z,14.3
2016-08-07T02:29:06.810Z,14.3
2016-08-07T02:29:20.166Z,14.3
2016-08-07T02:29:32.884Z,14.3
2016-08-07T02:29:47.788Z,14.3
2016-08-07T02:30:00.493Z,14.3
2016-08-07T02:30:16.181Z,14.3
2016-08-07T02:30:28.797Z,14.3
2016-08-07T02:30:42.935Z,14.3
2016-08-07T02:30:57.796Z,14.5
2016-08-07T02:31:11.158Z,14.4
2016-08-07T02:31:23.860Z,14.3
2016-08-07T02:31:38.733Z,14.5
2016-08-07T02:31:52.319Z,14.4
2016-08-07T02:32:08.387Z,14.4
2016-08-07T02:32:21.063Z,14.4
2016-08-07T02:32:34.441Z,14.4
2016-08-07T02:32:46.363Z,14.3
2016-08-07T02:33:01.431Z,14.5
2016-08-07T02:33:15.640Z,14.4
2016-08-07T02:33:30.509Z,14.3
2016-08-07T02:33:45.403Z,14.2
2016-08-07T02:33:59.514Z,14.3
2016-08-07T02:34:13.613Z,14.3
2016-08-07T02:34:27.716Z,14.3
2016-08-07T02:34:41.085Z,14.4
2016-08-07T02:34:53.006Z,14.3
2016-08-07T02:35:06.583Z,14.3
2016-08-07T02:35:20.846Z,14.4
2016-08-07T02:35:34.994Z,14.3
2016-08-07T02:35:49.896Z,14.4
2016-08-07T02:36:03.291Z,14.3
2016-08-07T02:36:18.196Z,14.4
2016-08-07T02:36:43.299Z,14.4
2016-08-07T02:36:58.169Z,14.4
2016-08-07T02:37:10.788Z,14.4
2016-08-07T02:37:24.143Z,14.4
2016-08-07T02:37:37.507Z,14.4
2016-08-07T02:37:49.385Z,14.3
2016-08-07T02:38:04.225Z,14.3
2016-08-07T02:38:19.345Z,14.2
2016-08-07T02:38:33.614Z,14.3
2016-08-07T02:38:47.036Z,14.2
2016-08-07T02:38:59.658Z,14.4
2016-08-07T02:39:13.064Z,14.4
2016-08-07T02:39:27.176Z,14.3
2016-08-07T02:39:41.295Z,14.5
2016-08-07T02:39:54.760Z,14.4
2016-08-07T02:40:09.738Z,14.5
2016-08-07T02:40:23.876Z,14.4
2016-08-07T02:40:38.744Z,14.4
2016-08-07T02:40:54.217Z,14.4
2016-08-07T02:41:09.950Z,14.5
2016-08-07T02:41:23.306Z,14.4
2016-08-07T02:41:35.935Z,14.5
2016-08-07T02:41:49.320Z,14.4
2016-08-07T02:42:04.178Z,14.4
2016-08-07T02:42:16.809Z,14.5
2016-08-07T02:42:31.676Z,14.5
2016-08-07T02:42:45.029Z,14.4
2016-08-07T02:42:57.699Z,14.5
2016-08-07T02:43:11.867Z,14.4
2016-08-07T02:43:27.939Z,14.5
2016-08-07T02:43:42.056Z,14.4
2016-08-07T02:43:53.819Z,14.4
2016-08-07T02:44:07.184Z,14.4
2016-08-07T02:44:21.290Z,14.5
2016-08-07T02:44:33.151Z,14.4
2016-08-07T02:44:45.025Z,14.4
2016-08-07T02:44:59.148Z,14.4
2016-08-07T02:45:14.356Z,14.5
2016-08-07T02:45:27.126Z,14.5
2016-08-07T02:45:41.242Z,14.6
2016-08-07T02:45:54.614Z,14.5
2016-08-07T02:46:08.745Z,14.4
2016-08-07T02:46:20.817Z,14.4
2016-08-07T02:46:36.435Z,14.4
2016-08-07T02:46:50.573Z,14.5
2016-08-07T02:47:04.687Z,14.5
2016-08-07T02:47:17.295Z,14.5
2016-08-07T02:47:32.146Z,14.5
2016-08-07T02:47:45.620Z,14.3
2016-08-07T02:47:59.006Z,14.5
2016-08-07T02:48:12.608Z,14.5
2016-08-07T02:48:27.587Z,14.5
2016-08-07T02:48:41.686Z,14.4
2016-08-07T02:48:55.340Z,14.5
2016-08-07T02:49:08.684Z,14.4
2016-08-07T02:49:22.049Z,14.5
2016-08-07T02:49:37.236Z,14.5
2016-08-07T02:49:49.830Z,14.5
2016-08-07T02:50:02.414Z,14.5
2016-08-07T02:50:16.314Z,14.4
2016-08-07T02:50:28.199Z,14.4
2016-08-07T02:50:41.574Z,14.5
2016-08-07T02:50:57.172Z,14.4
2016-08-07T02:51:11.300Z,14.3
2016-08-07T02:51:38.596Z,14.2
2016-08-07T02:51:53.575Z,14.3
2016-08-07T02:52:07.679Z,14.2
2016-08-07T02:52:21.792Z,14.3
2016-08-07T02:52:35.153Z,14.4
2016-08-07T02:52:48.510Z,14.3
2016-08-07T02:53:02.609Z,14.3
2016-08-07T02:53:16.757Z,14.4
2016-08-07T02:53:30.855Z,14.4
2016-08-07T02:53:44.249Z,14.5
2016-08-07T02:53:57.624Z,14.4
2016-08-07T02:54:10.991Z,14.4
2016-08-07T02:54:24.372Z,14.3
2016-08-07T02:54:36.984Z,14.4
2016-08-07T02:54:48.921Z,14.4
2016-08-07T02:55:02.392Z,14.5
2016-08-07T02:55:17.087Z,14.4
2016-08-07T02:55:31.532Z,14.4
2016-08-07T02:55:46.404Z,14.4
2016-08-07T02:56:01.373Z,14.4
2016-08-07T02:56:15.355Z,14.3
2016-08-07T02:56:27.970Z,14.4
2016-08-07T02:56:39.092Z,14.2
2016-08-07T02:56:53.235Z,14.4
2016-08-07T02:57:05.103Z,14.4
2016-08-07T02:57:19.237Z,14.5
2016-08-07T02:57:32.780Z,14.4
2016-08-07T02:57:46.163Z,14.3
2016-08-07T02:58:00.263Z,14.2
2016-08-07T02:58:15.194Z,14.2
2016-08-07T02:58:29.440Z,14.3
2016-08-07T02:58:42.146Z,14.2
2016-08-07T02:58:54.761Z,14.3
2016-08-07T02:59:07.425Z,14.4
2016-08-07T02:59:21.566Z,14.4
2016-08-07T02:59:35.669Z,14.3
2016-08-07T02:59:47.529Z,14.4
2016-08-07T03:00:00.153Z,14.4
2016-08-07T03:00:13.610Z,14.3
2016-08-07T03:00:28.660Z,14.3
2016-08-07T03:00:43.559Z,14.4
2016-08-07T03:00:56.166Z,14.4
2016-08-07T03:01:11.056Z,14.5
2016-08-07T03:01:22.186Z,14.4
2016-08-07T03:01:35.554Z,14.4
2016-08-07T03:01:48.941Z,14.3
2016-08-07T03:02:00.798Z,14.4
2016-08-07T03:02:15.670Z,14.4
2016-08-07T03:02:30.517Z,14.3
2016-08-07T03:02:43.131Z,14.5
2016-08-07T03:02:56.514Z,14.2
2016-08-07T03:03:08.380Z,14.3
2016-08-07T03:03:20.986Z,14.3
2016-08-07T03:03:39.288Z,14.3
2016-08-07T03:03:53.419Z,14.3
2016-08-07T03:04:05.299Z,14.4
2016-08-07T03:04:20.282Z,14.4
2016-08-07T03:04:34.398Z,14.4
2016-08-07T03:04:50.007Z,14.3
2016-08-07T03:05:04.176Z,14.4
2016-08-07T03:05:18.332Z,14.4
2016-08-07T03:05:33.273Z,14.3
2016-08-07T03:05:45.111Z,14.3